createdAt,value
2019-01-10T00:00:26.476Z,3.17
2019-01-10T00:02:53.495Z,4.25
2019-01-10T00:05:20.536Z,8.08
2019-01-10T00:07:47.436Z,4.72
2019-01-10T00:10:15.462Z,4.70
2019-01-10T00:12:42.655Z,3.12
2019-01-10T00:15:11.755Z,3.02
2019-01-10T00:17:38.744Z,3.50
2019-01-10T00:20:07.284Z,7.28
2019-01-10T00:22:34.246Z,4.47
2019-01-10T00:25:01.505Z,4.15
2019-01-10T00:27:28.600Z,4.42
2019-01-10T00:29:55.552Z,5.00
2019-01-10T00:32:22.504Z,5.87
2019-01-10T00:34:49.490Z,3.37
2019-01-10T00:37:16.399Z,2.95
2019-01-10T00:39:43.636Z,4.85
2019-01-10T00:42:10.676Z,4.90
2019-01-10T00:44:37.642Z,3.85
2019-01-10T00:47:04.621Z,3.33
2019-01-10T00:49:31.563Z,6.42
2019-01-10T00:51:58.478Z,3.15
2019-01-10T00:54:25.477Z,4.70
2019-01-10T00:56:52.582Z,4.08
2019-01-10T00:59:19.630Z,2.83
2019-01-10T01:01:46.616Z,5.67
2019-01-10T01:04:14.792Z,4.05
2019-01-10T01:06:41.805Z,2.95
2019-01-10T01:09:08.826Z,3.55
2019-01-10T01:11:35.749Z,2.52
2019-01-10T01:14:03.152Z,3.62
2019-01-10T01:16:30.402Z,2.67
2019-01-10T01:18:57.416Z,3.10
2019-01-10T01:21:24.565Z,4.97
2019-01-10T01:23:51.544Z,3.65
2019-01-10T01:26:18.545Z,3.00
2019-01-10T01:28:45.553Z,5.60
2019-01-10T01:31:12.509Z,7.22
2019-01-10T01:33:39.534Z,5.33
2019-01-10T01:36:06.757Z,3.20
2019-01-10T01:38:33.724Z,4.35
2019-01-10T01:41:00.978Z,3.20
2019-01-10T01:43:27.969Z,2.58
2019-01-10T01:45:57.913Z,4.47
2019-01-10T01:48:25.031Z,3.00
2019-01-10T01:50:52.072Z,2.80
2019-01-10T01:53:19.110Z,5.37
2019-01-10T01:55:46.021Z,3.20
2019-01-10T01:58:14.236Z,3.80
2019-01-10T02:00:41.434Z,2.98
2019-01-10T02:03:10.032Z,4.65
2019-01-10T02:05:37.104Z,3.80
2019-01-10T02:08:04.193Z,3.30
2019-01-10T02:10:31.249Z,3.42
2019-01-10T02:12:58.134Z,3.90
2019-01-10T02:15:25.253Z,10.38
2019-01-10T02:17:52.234Z,4.17
2019-01-10T02:20:19.435Z,13.20
2019-01-10T02:22:46.597Z,4.30
2019-01-10T02:25:14.084Z,5.15
2019-01-10T02:27:41.186Z,3.60
2019-01-10T02:30:11.869Z,3.08
2019-01-10T02:32:38.916Z,8.70
2019-01-10T02:35:06.884Z,5.75
2019-01-10T02:37:33.933Z,4.70
2019-01-10T02:40:01.143Z,6.60
2019-01-10T02:42:28.494Z,5.72
2019-01-10T02:44:56.021Z,3.58
2019-01-10T02:47:23.043Z,4.97
2019-01-10T02:49:49.935Z,4.80
2019-01-10T02:52:16.882Z,4.20
2019-01-10T02:54:43.882Z,3.58
2019-01-10T02:57:10.867Z,3.87
2019-01-10T02:59:39.373Z,4.08
2019-01-10T03:02:06.554Z,4.42
2019-01-10T03:04:33.567Z,5.72
2019-01-10T03:07:00.602Z,2.87
2019-01-10T03:09:27.884Z,4.10
2019-01-10T03:11:55.010Z,3.60
2019-01-10T03:14:21.917Z,4.67
2019-01-10T03:16:48.865Z,3.45
2019-01-10T03:19:15.830Z,3.70
2019-01-10T03:21:42.805Z,5.22
2019-01-10T03:24:11.636Z,3.45
2019-01-10T03:26:38.709Z,4.42
2019-01-10T03:29:05.657Z,4.50
2019-01-10T03:31:32.649Z,3.70
2019-01-10T03:33:59.742Z,4.67
2019-01-10T03:36:26.733Z,3.42
2019-01-10T03:38:53.659Z,5.05
2019-01-10T03:41:20.668Z,4.42
2019-01-10T03:43:47.844Z,4.53
2019-01-10T03:46:14.971Z,5.47
2019-01-10T03:48:41.930Z,5.97
2019-01-10T03:51:09.907Z,7.15
2019-01-10T03:53:37.128Z,10.35
2019-01-10T03:56:04.185Z,5.03
2019-01-10T03:58:31.152Z,4.42
2019-01-10T04:00:58.095Z,6.25
2019-01-10T04:03:25.151Z,3.70
2019-01-10T04:05:54.103Z,7.10
2019-01-10T04:08:21.016Z,6.72
2019-01-10T04:10:48.311Z,4.08
2019-01-10T04:13:15.434Z,4.95
2019-01-10T04:15:43.871Z,3.02
2019-01-10T04:18:10.770Z,4.05
2019-01-10T04:20:37.831Z,5.42
2019-01-10T04:23:04.831Z,4.95
2019-01-10T04:25:31.844Z,3.30
2019-01-10T04:27:58.777Z,2.75
2019-01-10T04:30:25.653Z,4.60
2019-01-10T04:32:52.563Z,4.87
2019-01-10T04:35:19.507Z,5.30
2019-01-10T04:37:47.614Z,5.40
2019-01-10T04:40:17.091Z,3.98
2019-01-10T04:42:44.071Z,3.37
2019-01-10T04:45:11.294Z,6.33
2019-01-10T04:47:40.357Z,5.35
2019-01-10T04:50:08.097Z,4.85
2019-01-10T04:52:35.095Z,5.60
2019-01-10T04:55:02.120Z,4.00
2019-01-10T04:57:29.097Z,4.12
2019-01-10T04:59:56.069Z,4.08
2019-01-10T05:02:23.027Z,4.92
2019-01-10T05:04:50.126Z,4.45
2019-01-10T05:07:17.085Z,3.83
2019-01-10T05:09:43.997Z,3.60
2019-01-10T05:12:11.179Z,4.10
2019-01-10T05:14:38.158Z,7.60
2019-01-10T05:17:06.940Z,3.75
2019-01-10T05:19:34.065Z,3.65
2019-01-10T05:22:00.965Z,3.52
2019-01-10T05:24:27.941Z,4.67
2019-01-10T05:26:54.849Z,5.37
2019-01-10T05:29:21.789Z,6.87
2019-01-10T05:31:48.923Z,4.83
2019-01-10T05:34:16.042Z,5.80
2019-01-10T05:36:43.069Z,8.50
2019-01-10T05:39:10.165Z,5.20
2019-01-10T05:41:37.210Z,8.53
2019-01-10T05:44:04.225Z,3.85
2019-01-10T05:46:31.305Z,3.70
2019-01-10T05:48:58.318Z,7.58
2019-01-10T05:51:25.337Z,4.20
2019-01-10T05:53:52.436Z,6.15
2019-01-10T05:56:20.572Z,5.35
2019-01-10T05:58:47.560Z,2.87
2019-01-10T06:01:14.661Z,6.78
2019-01-10T06:03:41.626Z,3.52
2019-01-10T06:06:08.648Z,3.40
2019-01-10T06:08:35.786Z,3.50
2019-01-10T06:11:02.745Z,4.83
2019-01-10T06:13:29.791Z,4.72
2019-01-10T06:15:56.842Z,5.53
2019-01-10T06:18:23.775Z,7.60
2019-01-10T06:20:50.811Z,3.25
2019-01-10T06:23:18.030Z,3.95
2019-01-10T06:25:45.278Z,5.00
2019-01-10T06:28:12.286Z,7.03
2019-01-10T06:30:39.325Z,2.65
2019-01-10T06:33:07.667Z,5.50
2019-01-10T06:35:50.645Z,4.03
2019-01-10T06:38:23.978Z,4.47
2019-01-10T06:40:51.101Z,3.85
2019-01-10T06:43:18.244Z,3.85
2019-01-10T06:45:45.245Z,4.25
2019-01-10T06:48:12.707Z,5.45
2019-01-10T06:50:40.097Z,7.42
2019-01-10T06:53:07.470Z,3.50
2019-01-10T06:55:34.689Z,5.08
2019-01-10T06:58:02.244Z,6.28
2019-01-10T07:00:29.733Z,3.17
2019-01-10T07:02:57.288Z,3.33
2019-01-10T07:05:24.717Z,4.28
2019-01-10T07:07:56.686Z,3.45
2019-01-10T07:10:25.041Z,5.62
2019-01-10T07:12:53.170Z,4.15
2019-01-10T07:15:20.779Z,3.95
2019-01-10T07:17:48.171Z,5.53
2019-01-10T07:20:15.846Z,5.75
2019-01-10T07:22:45.488Z,6.80
2019-01-10T07:25:12.844Z,5.15
2019-01-10T07:27:40.204Z,4.47
2019-01-10T07:30:09.672Z,5.87
2019-01-10T07:32:36.704Z,6.67
2019-01-10T07:35:11.660Z,6.87
2019-01-10T07:37:38.702Z,5.08
2019-01-10T07:40:09.573Z,5.30
2019-01-10T07:42:36.669Z,5.20
2019-01-10T07:45:10.195Z,7.20
2019-01-10T07:47:46.631Z,4.37
2019-01-10T07:50:13.679Z,4.78
2019-01-10T07:52:40.831Z,4.80
2019-01-10T07:55:07.795Z,4.22
2019-01-10T07:57:34.902Z,7.35
2019-01-10T08:00:02.044Z,4.80
2019-01-10T08:02:29.039Z,9.90
2019-01-10T08:04:56.052Z,5.40
2019-01-10T08:07:23.108Z,4.45
2019-01-10T08:09:50.097Z,4.53
2019-01-10T08:12:17.092Z,10.08
2019-01-10T08:14:44.035Z,6.75
2019-01-10T08:17:15.891Z,6.28
2019-01-10T08:19:39.878Z,4.78
2019-01-10T08:22:07.024Z,6.83
2019-01-10T08:24:33.993Z,8.88
2019-01-10T08:27:00.904Z,5.42
2019-01-10T08:29:27.869Z,6.90
2019-01-10T08:31:54.819Z,6.95
2019-01-10T08:34:21.814Z,7.55
2019-01-10T08:36:48.801Z,5.75
2019-01-10T08:39:15.878Z,7.35
2019-01-10T08:41:43.155Z,4.42
2019-01-10T08:44:10.299Z,7.85
2019-01-10T08:46:37.413Z,6.08
2019-01-10T08:49:04.596Z,7.15
2019-01-10T08:51:31.674Z,6.12
2019-01-10T08:53:58.748Z,4.87
2019-01-10T08:56:25.645Z,8.08
2019-01-10T08:58:52.769Z,6.55
2019-01-10T09:01:19.715Z,5.67
2019-01-10T09:03:46.676Z,5.25
2019-01-10T09:06:13.717Z,4.35
2019-01-10T09:08:40.673Z,4.65
2019-01-10T09:11:07.762Z,4.90
2019-01-10T09:13:34.830Z,4.95
2019-01-10T09:16:01.994Z,4.50
2019-01-10T09:18:28.997Z,5.05
2019-01-10T09:21:03.932Z,6.78
2019-01-10T09:23:24.795Z,5.92
2019-01-10T09:25:51.755Z,6.25
2019-01-10T09:28:18.772Z,7.50
2019-01-10T09:30:45.781Z,5.50
2019-01-10T09:33:12.943Z,6.28
2019-01-10T09:35:39.990Z,5.83
2019-01-10T09:38:07.046Z,5.70
2019-01-10T09:40:34.114Z,7.25
2019-01-10T09:43:01.331Z,6.35
2019-01-10T09:45:28.436Z,7.40
2019-01-10T09:47:55.835Z,4.92
2019-01-10T09:50:22.972Z,5.03
2019-01-10T09:52:50.655Z,6.08
2019-01-10T09:55:18.285Z,5.87
2019-01-10T09:57:47.799Z,8.05
2019-01-10T10:00:28.868Z,7.00
2019-01-10T10:02:56.453Z,5.22
2019-01-10T10:05:25.666Z,5.80
2019-01-10T10:07:52.890Z,5.42
2019-01-10T10:10:20.371Z,6.03
2019-01-10T10:12:47.500Z,4.70
2019-01-10T10:15:15.738Z,5.60
2019-01-10T10:17:42.682Z,4.45
2019-01-10T10:20:12.057Z,8.40
2019-01-10T10:22:39.436Z,5.00
2019-01-10T10:25:06.836Z,7.20
2019-01-10T10:27:33.897Z,7.00
2019-01-10T10:30:01.345Z,5.15
2019-01-10T10:32:28.473Z,11.15
2019-01-10T10:34:55.782Z,8.73
2019-01-10T10:37:22.851Z,6.45
2019-01-10T10:39:50.009Z,8.68
2019-01-10T10:42:17.209Z,7.85
2019-01-10T10:44:44.494Z,5.22
2019-01-10T10:47:11.581Z,6.55
2019-01-10T10:49:38.588Z,6.90
2019-01-10T10:52:05.734Z,6.55
2019-01-10T10:54:32.909Z,7.62
2019-01-10T10:56:59.938Z,4.87
2019-01-10T10:59:27.111Z,6.28
2019-01-10T11:01:54.296Z,6.55
2019-01-10T11:04:21.512Z,7.40
2019-01-10T11:06:48.568Z,6.42
2019-01-10T11:09:15.660Z,8.48
2019-01-10T11:11:47.381Z,8.45
2019-01-10T11:14:15.062Z,6.33
2019-01-10T11:16:42.479Z,9.80
2019-01-10T11:19:09.812Z,10.00
2019-01-10T11:21:37.164Z,8.05
2019-01-10T11:24:04.975Z,7.03
2019-01-10T11:26:31.963Z,7.65
2019-01-10T11:28:58.954Z,9.00
2019-01-10T11:31:26.158Z,8.38
2019-01-10T11:33:53.250Z,6.00
2019-01-10T11:36:20.487Z,5.62
2019-01-10T11:38:47.443Z,13.05
2019-01-10T11:41:14.686Z,6.53
2019-01-10T11:43:41.832Z,5.58
2019-01-10T11:46:08.982Z,5.22
2019-01-10T11:48:36.039Z,5.47
2019-01-10T11:51:03.164Z,7.90
2019-01-10T11:53:35.481Z,13.18
2019-01-10T11:55:59.153Z,10.00
2019-01-10T11:58:26.308Z,9.30
2019-01-10T12:00:53.361Z,8.43
2019-01-10T12:03:20.437Z,6.00
2019-01-10T12:05:52.950Z,6.20
2019-01-10T12:08:18.839Z,6.03
2019-01-10T12:10:45.849Z,8.30
2019-01-10T12:13:13.236Z,8.25
2019-01-10T12:15:40.218Z,7.20
2019-01-10T12:18:07.435Z,8.28
2019-01-10T12:20:34.412Z,8.93
2019-01-10T12:23:01.462Z,12.00
2019-01-10T12:25:28.429Z,7.08
2019-01-10T12:27:55.566Z,6.33
2019-01-10T12:30:25.003Z,6.53
2019-01-10T12:32:52.095Z,6.47
2019-01-10T12:35:19.159Z,6.67
2019-01-10T12:37:46.357Z,4.35
2019-01-10T12:40:13.535Z,7.08
2019-01-10T12:42:40.592Z,5.53
2019-01-10T12:45:10.211Z,5.10
2019-01-10T12:47:37.278Z,6.83
2019-01-10T12:50:08.402Z,10.70
2019-01-10T12:52:35.633Z,7.53
2019-01-10T12:55:02.784Z,4.45
2019-01-10T12:57:29.769Z,6.37
2019-01-10T12:59:56.776Z,6.92
2019-01-10T13:02:23.931Z,5.20
2019-01-10T13:04:50.967Z,6.65
2019-01-10T13:07:18.174Z,11.68
2019-01-10T13:09:45.383Z,4.85
2019-01-10T13:12:12.458Z,6.80
2019-01-10T13:14:39.502Z,5.97
2019-01-10T13:17:06.587Z,4.72
2019-01-10T13:19:33.609Z,6.15
2019-01-10T13:22:00.692Z,10.25
2019-01-10T13:24:27.689Z,7.17
2019-01-10T13:26:54.788Z,5.30
2019-01-10T13:29:21.807Z,5.28
2019-01-10T13:31:48.980Z,3.90
2019-01-10T13:34:15.907Z,4.62
2019-01-10T13:36:43.077Z,4.50
2019-01-10T13:39:10.270Z,4.55
2019-01-10T13:41:37.226Z,4.33
2019-01-10T13:44:04.335Z,6.08
2019-01-10T13:46:31.631Z,5.08
2019-01-10T13:48:58.834Z,5.45
2019-01-10T13:51:26.321Z,6.87
2019-01-10T13:53:53.337Z,4.60
2019-01-10T13:56:20.309Z,6.12
2019-01-10T13:58:47.448Z,3.42
2019-01-10T14:01:14.518Z,5.17
2019-01-10T14:03:41.795Z,6.55
2019-01-10T14:06:10.654Z,3.47
2019-01-10T14:08:37.740Z,4.00
2019-01-10T14:11:06.019Z,4.03
2019-01-10T14:13:34.486Z,3.45
2019-01-10T14:16:01.589Z,3.90
2019-01-10T14:18:28.626Z,4.70
2019-01-10T14:20:55.632Z,4.33
2019-01-10T14:23:22.825Z,7.80
2019-01-10T14:25:50.047Z,10.32
2019-01-10T14:28:18.391Z,9.60
2019-01-10T14:30:45.636Z,7.55
2019-01-10T14:33:13.174Z,4.92
2019-01-10T14:35:40.426Z,10.80
2019-01-10T14:38:07.926Z,5.17
2019-01-10T14:40:34.990Z,3.77
2019-01-10T14:43:02.983Z,3.90
2019-01-10T14:45:30.467Z,4.22
2019-01-10T14:48:01.834Z,3.15
2019-01-10T14:50:26.478Z,4.00
2019-01-10T14:52:53.554Z,3.67
2019-01-10T14:55:20.774Z,2.95
2019-01-10T14:57:48.057Z,4.33
2019-01-10T15:00:17.566Z,6.92
2019-01-10T15:02:44.448Z,3.67
2019-01-10T15:05:11.893Z,8.48
2019-01-10T15:07:40.105Z,6.33
2019-01-10T15:10:08.846Z,3.25
2019-01-10T15:12:35.865Z,3.33
2019-01-10T15:15:05.653Z,4.17
2019-01-10T15:17:32.845Z,3.72
2019-01-10T15:19:59.891Z,3.70
2019-01-10T15:22:26.891Z,6.65
2019-01-10T15:24:53.834Z,4.20
2019-01-10T15:27:21.065Z,5.00
2019-01-10T15:29:48.216Z,5.87
2019-01-10T15:32:15.220Z,5.65
2019-01-10T15:34:42.208Z,6.45
2019-01-10T15:37:09.489Z,9.40
2019-01-10T15:39:36.538Z,9.13
2019-01-10T15:42:03.828Z,4.35
2019-01-10T15:44:30.824Z,8.53
2019-01-10T15:46:57.874Z,10.08
2019-01-10T15:49:25.099Z,8.88
2019-01-10T15:51:52.389Z,9.63
2019-01-10T15:54:19.445Z,10.03
2019-01-10T15:56:47.732Z,5.90
2019-01-10T15:59:14.785Z,4.37
2019-01-10T16:01:41.884Z,7.87
2019-01-10T16:04:08.945Z,5.05
2019-01-10T16:06:36.112Z,4.33
2019-01-10T16:09:05.817Z,4.22
2019-01-10T16:11:33.068Z,5.40
2019-01-10T16:14:00.164Z,4.20
2019-01-10T16:16:27.236Z,7.62
2019-01-10T16:18:54.318Z,7.60
2019-01-10T16:21:21.468Z,5.00
2019-01-10T16:23:48.573Z,3.98
2019-01-10T16:26:15.623Z,5.50
2019-01-10T16:28:43.832Z,4.55
2019-01-10T16:31:10.820Z,9.83
2019-01-10T16:33:37.793Z,6.22
2019-01-10T16:36:04.863Z,8.95
2019-01-10T16:38:32.258Z,8.53
2019-01-10T16:40:59.321Z,6.72
2019-01-10T16:43:26.351Z,9.85
2019-01-10T16:45:53.312Z,9.88
2019-01-10T16:48:20.425Z,5.00
2019-01-10T16:50:47.459Z,4.10
2019-01-10T16:53:14.630Z,6.85
2019-01-10T16:55:42.079Z,9.55
2019-01-10T16:58:10.565Z,8.55
2019-01-10T17:00:37.559Z,3.85
2019-01-10T17:03:06.849Z,4.60
2019-01-10T17:05:34.130Z,6.22
2019-01-10T17:08:01.068Z,4.92
2019-01-10T17:10:28.257Z,4.35
2019-01-10T17:12:55.205Z,8.35
2019-01-10T17:15:22.222Z,6.35
2019-01-10T17:17:49.213Z,10.10
2019-01-10T17:20:18.861Z,7.17
2019-01-10T17:22:46.024Z,5.90
2019-01-10T17:25:14.226Z,6.95
2019-01-10T17:27:42.101Z,4.92
2019-01-10T17:30:12.797Z,8.33
2019-01-10T17:32:40.164Z,7.95
2019-01-10T17:35:12.449Z,6.03
2019-01-10T17:37:40.923Z,4.83
2019-01-10T17:40:11.390Z,8.35
2019-01-10T17:42:38.470Z,5.85
2019-01-10T17:45:13.610Z,4.17
2019-01-10T17:47:43.774Z,4.85
2019-01-10T17:50:10.505Z,4.83
2019-01-10T17:52:37.711Z,7.67
2019-01-10T17:55:05.647Z,13.13
2019-01-10T17:57:33.885Z,4.30
2019-01-10T18:00:01.055Z,8.45
2019-01-10T18:02:28.381Z,6.50
2019-01-10T18:04:55.580Z,16.73
2019-01-10T18:07:22.551Z,5.80
2019-01-10T18:09:49.500Z,4.50
2019-01-10T18:12:16.653Z,5.75
2019-01-10T18:14:43.702Z,5.25
2019-01-10T18:17:11.399Z,10.32
2019-01-10T18:19:38.447Z,6.58
2019-01-10T18:22:05.705Z,9.33
2019-01-10T18:24:32.674Z,10.15
2019-01-10T18:26:59.791Z,9.93
2019-01-10T18:29:32.586Z,8.25
2019-01-10T18:31:55.826Z,5.25
2019-01-10T18:34:22.901Z,8.88
2019-01-10T18:36:50.310Z,11.70
2019-01-10T18:39:18.386Z,10.63
2019-01-10T18:41:45.495Z,10.72
2019-01-10T18:44:12.538Z,7.97
2019-01-10T18:46:40.021Z,4.10
2019-01-10T18:49:07.029Z,7.60
2019-01-10T18:51:33.997Z,5.03
2019-01-10T18:54:01.064Z,8.70
2019-01-10T18:56:28.150Z,5.90
2019-01-10T18:58:55.142Z,7.47
2019-01-10T19:01:22.745Z,6.90
2019-01-10T19:03:52.663Z,4.92
2019-01-10T19:06:19.677Z,5.65
2019-01-10T19:08:46.756Z,9.03
2019-01-10T19:11:13.656Z,9.28
2019-01-10T19:13:40.723Z,5.60
2019-01-10T19:16:07.794Z,8.48
2019-01-10T19:18:34.866Z,8.90
2019-01-10T19:21:01.990Z,11.68
2019-01-10T19:23:28.965Z,10.82
2019-01-10T19:25:55.930Z,6.62
2019-01-10T19:28:22.943Z,5.80
2019-01-10T19:30:49.906Z,7.17
2019-01-10T19:33:16.936Z,8.25
2019-01-10T19:35:44.067Z,5.60
2019-01-10T19:38:11.160Z,7.83
2019-01-10T19:40:38.228Z,5.20
2019-01-10T19:43:05.315Z,10.78
2019-01-10T19:45:32.365Z,7.62
2019-01-10T19:47:59.424Z,4.75
2019-01-10T19:50:26.550Z,5.65
2019-01-10T19:52:53.628Z,6.42
2019-01-10T19:55:22.211Z,8.40
2019-01-10T19:57:49.948Z,8.98
2019-01-10T20:00:23.166Z,5.65
2019-01-10T20:02:50.287Z,7.42
2019-01-10T20:05:17.536Z,11.25
2019-01-10T20:07:44.756Z,8.35
2019-01-10T20:10:12.383Z,6.37
2019-01-10T20:12:39.637Z,5.35
2019-01-10T20:15:07.202Z,8.63
2019-01-10T20:17:34.473Z,6.87
2019-01-10T20:20:01.902Z,26.65
2019-01-10T20:22:29.233Z,12.43
2019-01-10T20:24:56.960Z,15.80
2019-01-10T20:27:24.086Z,15.90
2019-01-10T20:29:51.597Z,19.23
2019-01-10T20:32:18.742Z,20.50
2019-01-10T20:34:45.754Z,16.17
2019-01-10T20:37:12.819Z,15.55
2019-01-10T20:39:40.974Z,12.37
2019-01-10T20:42:09.353Z,16.48
2019-01-10T20:44:36.699Z,9.05
2019-01-10T20:47:03.679Z,11.73
2019-01-10T20:49:30.789Z,9.30
2019-01-10T20:51:57.949Z,11.83
2019-01-10T20:54:25.055Z,14.95
2019-01-10T20:56:52.150Z,17.27
2019-01-10T20:59:19.066Z,13.93
2019-01-10T21:01:46.168Z,14.18
2019-01-10T21:04:13.221Z,20.25
2019-01-10T21:06:40.266Z,16.55
2019-01-10T21:09:12.995Z,22.80
2019-01-10T21:11:37.391Z,20.72
2019-01-10T21:14:04.495Z,15.88
2019-01-10T21:16:31.509Z,17.48
2019-01-10T21:18:58.464Z,18.73
2019-01-10T21:21:25.437Z,14.15
2019-01-10T21:23:52.408Z,10.15
2019-01-10T21:26:19.726Z,10.80
2019-01-10T21:28:47.324Z,10.75
2019-01-10T21:31:14.742Z,6.85
2019-01-10T21:33:41.757Z,7.40
2019-01-10T21:36:08.809Z,7.95
2019-01-10T21:38:35.955Z,7.90
2019-01-10T21:41:03.147Z,12.47
2019-01-10T21:43:30.397Z,14.70
2019-01-10T21:45:59.232Z,8.70
2019-01-10T21:48:26.186Z,10.58
2019-01-10T21:50:53.456Z,10.48
2019-01-10T21:53:21.170Z,8.43
2019-01-10T21:55:48.322Z,12.33
2019-01-10T21:58:15.472Z,5.50
2019-01-10T22:00:42.525Z,7.20
2019-01-10T22:03:09.811Z,5.37
2019-01-10T22:05:36.853Z,7.08
2019-01-10T22:08:06.336Z,6.25
2019-01-10T22:10:34.647Z,8.03
2019-01-10T22:13:01.743Z,6.00
2019-01-10T22:15:28.648Z,6.58
2019-01-10T22:17:55.689Z,12.23
2019-01-10T22:20:23.232Z,5.60
2019-01-10T22:22:50.221Z,5.25
2019-01-10T22:25:17.321Z,5.00
2019-01-10T22:27:44.606Z,5.97
2019-01-10T22:30:15.257Z,6.55
2019-01-10T22:32:42.170Z,5.60
2019-01-10T22:35:12.722Z,4.90
2019-01-10T22:37:40.104Z,4.42
2019-01-10T22:40:09.911Z,4.83
2019-01-10T22:42:37.160Z,4.00
2019-01-10T22:45:04.367Z,5.53
2019-01-10T22:47:31.437Z,4.65
2019-01-10T22:49:58.547Z,8.20
2019-01-10T22:52:25.488Z,7.78
2019-01-10T22:54:52.490Z,4.90
2019-01-10T22:57:19.503Z,4.80
2019-01-10T22:59:46.670Z,8.13
2019-01-10T23:02:13.984Z,6.25
2019-01-10T23:04:41.078Z,5.70
2019-01-10T23:07:20.268Z,7.95
2019-01-10T23:09:48.482Z,7.10
2019-01-10T23:12:15.554Z,5.90
2019-01-10T23:14:42.630Z,4.40
2019-01-10T23:17:09.599Z,6.00
2019-01-10T23:19:45.133Z,7.92
2019-01-10T23:22:13.880Z,7.20
2019-01-10T23:24:40.940Z,4.17
2019-01-10T23:27:08.357Z,7.30
2019-01-10T23:29:35.438Z,5.80
2019-01-10T23:32:12.975Z,4.65
2019-01-10T23:34:46.354Z,5.10
2019-01-10T23:37:19.320Z,4.60
2019-01-10T23:39:46.311Z,5.95
2019-01-10T23:42:13.359Z,5.08
2019-01-10T23:44:40.368Z,5.10
2019-01-10T23:47:07.370Z,5.00
2019-01-10T23:49:34.384Z,5.37
2019-01-10T23:52:01.288Z,4.40
2019-01-10T23:54:28.206Z,4.60
2019-01-10T23:56:55.319Z,6.20
2019-01-10T23:59:22.418Z,5.45
